Ave Maria, FL

10:26 AM EDT on September 16, 2014 (GMT -0400)
Immokalee | Change Station
CLOSE
Current Station
Airport
Location: Immokalee Regional Airport [I,
Elevation: 36 ft
Nearby Weather Stations

Elev 36 ft 26.43 °N, 81.40 °W | Updated 11 minutes ago

Clear
Clear
84 °F
Feels Like 104 °F
N
4
Wind Variable Wind from SSE

Today
High -- | Low -- °F
--% Chance of Precip.
Yesterday
High -- | Low -- °F
Precip. -- in
7:11 AM 7:28 PM
Last Quarter, 45% visible
Pressure 30.09 in
Visibility 7.0 miles
Clouds Clear
Heat Index 104 °F
Dew Point 84 °F
Humidity 100%
Rainfall 0.00 in
Snow Depth Not available.
UV 6 out of 12
Pollen 3.70 out of 12
Air Quality Not available.
Flu Activity Not available.
METAR KIMM 161415Z AUTO 15003KT 7SM CLR 29/29 A3009 RMK A01 P000

More Conditions Fewer Conditions

Pressure 30.09 in
Visibility 7.0 miles
Clouds Clear
Heat Index 104 °F
Dew Point 84 °F
Humidity 100%
Rainfall 0.00 in
Snow Depth Not available.
UV 6 out of 12
Pollen 3.70 out of 12
Air Quality Not available.
Flu Activity Not available.
METAR KIMM 161415Z AUTO 15003KT 7SM CLR 29/29 A3009 RMK A01 P000

More Conditions Fewer Conditions

10-Day Weather Forecast

Almanac

Astronomy

Sep. 16, 2014 Rise Set
Actual Time 7:11 AM EDT 7:28 PM EDT
Civil Twilight 6:48 AM EDT 7:51 PM EDT
Nautical Twilight 6:21 AM EDT 8:18 PM EDT
Astronomical Twilight 5:54 AM EDT 8:46 PM EDT
Moon 12:44 AM EDT 2:27 PM EDT
Length of Visible Light 13h 03m
Length of Day
12h 17m
Tomorrow will be 1m 33s shorter.
Last Quarter, 45% of the Moon is Illuminated
Today
Last Quarter
Sep 24
New
Oct 1
First Quarter
Oct 8
Full
Oct 15
Last Quarter

Today's Extremes

State Highs State Lows

Community

WunderPhotos

Upload Photos

1,753,784 photos uploaded!

Nearby

Snow Depth

Station Depth Elevation
No new snow has been reported.

Earthquake Activity

City Distance Mag. Time & Date
No recent earthquake activity has been reported nearby.
Minimum magnitude displayed is 2.5.

Coastal Water Temperatures

Place Temperature
Fort Myers, FL 86.0 °F
Naples, FL 89.1 °F

Nearby Weather Stations